createdAt,value
2017-03-09T00:01:12.035Z,7.23
2017-03-09T00:02:34.919Z,7.31
2017-03-09T00:03:57.838Z,7.24
2017-03-09T00:05:20.431Z,7.25
2017-03-09T00:06:42.387Z,7.32
2017-03-09T00:08:05.035Z,7.24
2017-03-09T00:09:27.552Z,7.28
2017-03-09T00:10:50.064Z,7.32
2017-03-09T00:12:12.883Z,7.35
2017-03-09T00:13:35.805Z,7.4
2017-03-09T00:14:58.768Z,7.32
2017-03-09T00:16:21.668Z,7.4
2017-03-09T00:17:43.385Z,7.37
2017-03-09T00:19:06.407Z,7.28
2017-03-09T00:20:28.122Z,7.3
2017-03-09T00:21:50.729Z,7.27
2017-03-09T00:23:13.136Z,7.31
2017-03-09T00:24:35.622Z,7.25
2017-03-09T00:25:58.582Z,7.25
2017-03-09T00:27:21.224Z,7.24
2017-03-09T00:28:44.076Z,7.32
2017-03-09T00:30:06.595Z,7.31
2017-03-09T00:31:29.088Z,7.31
2017-03-09T00:32:51.266Z,7.25
2017-03-09T00:34:14.132Z,7.27
2017-03-09T00:35:36.831Z,7.25
2017-03-09T00:36:58.916Z,7.28
2017-03-09T00:38:21.030Z,7.25
2017-03-09T00:39:43.861Z,7.3
2017-03-09T00:41:05.140Z,7.24
2017-03-09T00:42:27.306Z,7.27
2017-03-09T00:43:49.413Z,7.21
2017-03-09T00:45:12.264Z,7.24
2017-03-09T00:46:34.385Z,7.16
2017-03-09T00:47:57.284Z,7.21
2017-03-09T00:49:19.803Z,7.23
2017-03-09T00:50:42.147Z,7.07
2017-03-09T00:52:04.246Z,6.99
2017-03-09T00:53:26.487Z,7.03
2017-03-09T00:54:49.450Z,6.98
2017-03-09T00:56:11.776Z,6.94
2017-03-09T00:57:34.683Z,7.06
2017-03-09T00:58:57.603Z,6.98
2017-03-09T01:00:20.538Z,6.98
2017-03-09T01:01:42.941Z,6.98
2017-03-09T01:03:04.648Z,6.97
2017-03-09T01:04:27.167Z,6.99
2017-03-09T01:05:48.868Z,6.99
2017-03-09T01:07:12.303Z,7.02
2017-03-09T01:08:35.208Z,6.99
2017-03-09T01:09:57.348Z,6.95
2017-03-09T01:11:19.831Z,6.99
2017-03-09T01:12:42.167Z,6.97
2017-03-09T01:14:04.271Z,6.89
2017-03-09T01:15:26.848Z,6.91
2017-03-09T01:16:48.649Z,6.84
2017-03-09T01:18:11.053Z,6.73
2017-03-09T01:19:33.534Z,6.8
2017-03-09T01:20:56.528Z,6.8
2017-03-09T01:22:18.232Z,6.81
2017-03-09T01:23:40.347Z,6.77
2017-03-09T01:25:02.834Z,6.81
2017-03-09T01:26:24.576Z,6.8
2017-03-09T01:27:46.695Z,6.85
2017-03-09T01:29:09.468Z,6.84
2017-03-09T01:30:31.977Z,6.81
2017-03-09T01:31:54.878Z,6.77
2017-03-09T01:33:16.796Z,6.84
2017-03-09T01:34:39.217Z,6.84
2017-03-09T01:36:01.339Z,6.8
2017-03-09T01:37:23.068Z,6.81
2017-03-09T01:38:44.466Z,6.87
2017-03-09T01:40:07.278Z,6.8
2017-03-09T01:41:29.764Z,6.79
2017-03-09T01:42:52.297Z,6.89
2017-03-09T01:44:14.390Z,6.85
2017-03-09T01:45:37.205Z,6.89
2017-03-09T01:46:58.879Z,6.89
2017-03-09T01:48:21.764Z,6.88
2017-03-09T01:49:43.933Z,6.92
2017-03-09T01:51:07.165Z,6.85
2017-03-09T01:52:28.579Z,6.81
2017-03-09T01:53:51.129Z,6.8
2017-03-09T01:55:13.610Z,6.74
2017-03-09T01:56:36.789Z,6.74
2017-03-09T01:57:59.272Z,6.69
2017-03-09T01:59:22.238Z,6.73
2017-03-09T02:00:44.715Z,6.7
2017-03-09T02:02:06.709Z,6.81
2017-03-09T02:03:28.841Z,6.71
2017-03-09T02:04:51.332Z,6.64
2017-03-09T02:06:13.032Z,6.56
2017-03-09T02:07:35.789Z,6.54
2017-03-09T02:08:58.357Z,6.34
2017-03-09T02:10:20.497Z,6.34
2017-03-09T02:11:43.214Z,6.34
2017-03-09T02:13:05.290Z,6.36
2017-03-09T02:14:27.889Z,6.36
2017-03-09T02:15:49.984Z,6.37
2017-03-09T02:17:12.708Z,6.33
2017-03-09T02:18:34.735Z,6.49
2017-03-09T02:19:57.218Z,6.43
2017-03-09T02:21:19.691Z,6.46
2017-03-09T02:22:41.789Z,6.54
2017-03-09T02:24:04.236Z,6.58
2017-03-09T02:25:26.789Z,6.69
2017-03-09T02:26:48.883Z,6.64
2017-03-09T02:28:10.578Z,6.71
2017-03-09T02:29:33.128Z,6.74
2017-03-09T02:30:55.639Z,6.66
2017-03-09T02:32:18.158Z,6.64
2017-03-09T02:33:39.859Z,6.66
2017-03-09T02:35:02.928Z,6.56
2017-03-09T02:36:25.449Z,6.64
2017-03-09T02:37:47.931Z,6.7
2017-03-09T02:39:09.627Z,6.67
2017-03-09T02:40:32.087Z,6.62
2017-03-09T02:41:54.264Z,6.58
2017-03-09T02:43:17.005Z,6.54
2017-03-09T02:44:39.122Z,6.54
2017-03-09T02:46:01.908Z,6.46
2017-03-09T02:47:24.016Z,6.4
2017-03-09T02:48:46.506Z,6.28
2017-03-09T02:50:08.602Z,6.25
2017-03-09T02:51:31.004Z,6.25
2017-03-09T02:52:52.737Z,6.31
2017-03-09T02:54:14.409Z,6.21
2017-03-09T02:55:36.129Z,6.19
2017-03-09T02:56:58.484Z,6.17
2017-03-09T02:58:20.211Z,6.11
2017-03-09T02:59:42.767Z,6.08
2017-03-09T03:01:05.286Z,6.11
2017-03-09T03:02:27.931Z,6.06
2017-03-09T03:03:50.014Z,6.06
2017-03-09T03:05:11.722Z,6.03
2017-03-09T03:06:33.636Z,5.94
2017-03-09T03:07:55.615Z,5.91
2017-03-09T03:09:17.344Z,5.83
2017-03-09T03:10:39.954Z,5.81
2017-03-09T03:12:02.521Z,5.82
2017-03-09T03:13:25.334Z,5.81
2017-03-09T03:14:47.443Z,5.89
2017-03-09T03:16:10.215Z,5.99
2017-03-09T03:17:31.537Z,5.99
2017-03-09T03:18:54.336Z,6
2017-03-09T03:20:16.921Z,6.04
2017-03-09T03:21:39.403Z,6.06
2017-03-09T03:23:01.905Z,6.18
2017-03-09T03:24:23.920Z,6.15
2017-03-09T03:25:46.446Z,6.19
2017-03-09T03:27:08.999Z,6.25
2017-03-09T03:28:31.893Z,6.19
2017-03-09T03:29:55.025Z,6.11
2017-03-09T03:31:16.706Z,6.11
2017-03-09T03:32:38.457Z,6.08
2017-03-09T03:34:01.604Z,6.09
2017-03-09T03:35:24.033Z,6.09
2017-03-09T03:36:46.529Z,6.09
2017-03-09T03:38:08.639Z,6.19
2017-03-09T03:39:30.720Z,6.19
2017-03-09T03:40:52.759Z,6.22
2017-03-09T03:42:14.855Z,6.22
2017-03-09T03:43:37.425Z,6.25
2017-03-09T03:44:58.996Z,6.34
2017-03-09T03:46:21.768Z,6.36
2017-03-09T03:47:44.244Z,6.36
2017-03-09T03:49:06.058Z,6.37
2017-03-09T03:50:29.207Z,6.4
2017-03-09T03:51:51.939Z,6.52
2017-03-09T03:53:13.238Z,6.44
2017-03-09T03:54:35.364Z,6.34
2017-03-09T03:55:57.868Z,6.34
2017-03-09T03:57:21.148Z,6.4
2017-03-09T03:58:43.740Z,6.37
2017-03-09T04:00:06.245Z,6.49
2017-03-09T04:01:29.141Z,6.54
2017-03-09T04:02:51.141Z,6.56
2017-03-09T04:04:13.256Z,6.55
2017-03-09T04:05:35.785Z,6.55
2017-03-09T04:06:58.279Z,6.48
2017-03-09T04:08:20.726Z,6.48
2017-03-09T04:09:42.451Z,6.51
2017-03-09T04:11:04.966Z,6.54
2017-03-09T04:12:27.088Z,6.55
2017-03-09T04:13:49.975Z,6.49
2017-03-09T04:15:12.482Z,6.55
2017-03-09T04:16:34.997Z,6.55
2017-03-09T04:17:56.684Z,6.54
2017-03-09T04:19:19.254Z,6.52
2017-03-09T04:20:42.189Z,6.48
2017-03-09T04:22:05.126Z,6.46
2017-03-09T04:23:27.666Z,6.52
2017-03-09T04:24:49.763Z,6.44
2017-03-09T04:26:11.069Z,6.46
2017-03-09T04:27:33.166Z,6.38
2017-03-09T04:28:55.649Z,6.36
2017-03-09T04:30:18.119Z,6.25
2017-03-09T04:31:39.826Z,6.25
2017-03-09T04:33:02.406Z,6.22
2017-03-09T04:34:24.604Z,6.27
2017-03-09T04:35:47.759Z,6.21
2017-03-09T04:37:10.247Z,6.25
2017-03-09T04:38:32.355Z,6.31
2017-03-09T04:39:54.604Z,6.31
2017-03-09T04:41:17.485Z,6.34
2017-03-09T04:42:39.564Z,6.37
2017-03-09T04:44:01.689Z,6.46
2017-03-09T04:45:24.198Z,6.46
2017-03-09T04:46:47.409Z,6.52
2017-03-09T04:48:10.367Z,6.49
2017-03-09T04:49:33.345Z,6.51
2017-03-09T04:50:56.245Z,6.48
2017-03-09T04:52:19.157Z,6.49
2017-03-09T04:53:41.661Z,6.43
2017-03-09T04:55:03.775Z,6.43
2017-03-09T04:56:25.456Z,6.38
2017-03-09T04:57:48.305Z,6.43
2017-03-09T04:59:10.806Z,6.44
2017-03-09T05:00:32.959Z,6.37
2017-03-09T05:01:55.107Z,6.34
2017-03-09T05:03:17.109Z,6.38
2017-03-09T05:04:38.975Z,6.31
2017-03-09T05:06:01.690Z,6.38
2017-03-09T05:07:24.199Z,6.4
2017-03-09T05:08:47.008Z,6.36
2017-03-09T05:10:09.122Z,6.27
2017-03-09T05:11:31.725Z,6.36
2017-03-09T05:12:53.832Z,6.3
2017-03-09T05:14:16.369Z,6.22
2017-03-09T05:15:38.905Z,6.31
2017-03-09T05:17:00.628Z,6.22
2017-03-09T05:18:22.351Z,6.4
2017-03-09T05:19:45.503Z,6.34
2017-03-09T05:21:06.809Z,6.4
2017-03-09T05:22:28.519Z,6.4
2017-03-09T05:23:50.741Z,6.49
2017-03-09T05:25:13.557Z,6.46
2017-03-09T05:26:36.088Z,6.46
2017-03-09T05:27:58.598Z,6.52
2017-03-09T05:29:20.837Z,6.48
2017-03-09T05:30:43.247Z,6.48
2017-03-09T05:32:05.737Z,6.49
2017-03-09T05:33:27.831Z,6.43
2017-03-09T05:34:50.387Z,6.36
2017-03-09T05:36:13.602Z,6.37
2017-03-09T05:37:36.112Z,6.38
2017-03-09T05:38:58.302Z,6.38
2017-03-09T05:40:20.013Z,6.33
2017-03-09T05:41:42.847Z,6.38
2017-03-09T05:43:05.364Z,6.36
2017-03-09T05:44:27.442Z,6.44
2017-03-09T05:45:49.989Z,6.54
2017-03-09T05:47:12.867Z,6.46
2017-03-09T05:48:36.018Z,6.49
2017-03-09T05:49:58.532Z,6.4
2017-03-09T05:51:20.066Z,6.49
2017-03-09T05:52:42.841Z,6.49
2017-03-09T05:54:05.551Z,6.44
2017-03-09T05:55:27.701Z,6.51
2017-03-09T05:56:49.007Z,6.51
2017-03-09T05:58:11.899Z,6.54
2017-03-09T05:59:34.279Z,6.52
2017-03-09T06:00:56.889Z,6.56
2017-03-09T06:02:18.998Z,6.56
2017-03-09T06:03:41.103Z,6.56
2017-03-09T06:05:03.237Z,6.56
2017-03-09T06:06:26.142Z,6.56
2017-03-09T06:07:47.841Z,6.55
2017-03-09T06:09:10.527Z,6.58
2017-03-09T06:10:33.443Z,6.66
2017-03-09T06:11:55.616Z,6.62
2017-03-09T06:13:18.527Z,6.64
2017-03-09T06:14:41.241Z,6.77
2017-03-09T06:16:03.339Z,6.7
2017-03-09T06:17:26.239Z,6.67
2017-03-09T06:18:48.740Z,6.81
2017-03-09T06:20:10.765Z,6.8
2017-03-09T06:21:33.258Z,6.85
2017-03-09T06:22:55.416Z,6.84
2017-03-09T06:24:18.291Z,6.8
2017-03-09T06:26:13.369Z,6.8
2017-03-09T06:27:35.712Z,6.74
2017-03-09T06:28:57.629Z,6.8
2017-03-09T06:30:20.112Z,6.76
2017-03-09T06:31:42.960Z,6.76
2017-03-09T06:33:04.295Z,6.77
2017-03-09T06:34:26.919Z,6.88
2017-03-09T06:35:50.083Z,6.87
2017-03-09T06:37:12.600Z,6.87
2017-03-09T06:38:35.087Z,6.81
2017-03-09T06:39:57.190Z,6.94
2017-03-09T06:41:19.957Z,6.87
2017-03-09T06:42:42.421Z,6.87
2017-03-09T06:44:05.308Z,6.95
2017-03-09T06:45:27.423Z,7.02
2017-03-09T06:46:49.998Z,7.02
2017-03-09T06:48:12.541Z,6.99
2017-03-09T06:49:35.435Z,7.13
2017-03-09T06:50:57.948Z,7.12
2017-03-09T06:52:20.868Z,7.07
2017-03-09T06:53:43.378Z,7.13
2017-03-09T06:55:05.494Z,7.25
2017-03-09T06:56:27.999Z,7.27
2017-03-09T06:57:50.947Z,7.23
2017-03-09T06:59:13.463Z,7.32
2017-03-09T07:00:35.695Z,7.32
2017-03-09T07:01:58.196Z,7.31
2017-03-09T07:03:21.018Z,7.35
2017-03-09T07:04:43.559Z,7.39
2017-03-09T07:06:06.468Z,7.43
2017-03-09T07:07:28.970Z,7.4
2017-03-09T07:08:51.356Z,7.43
2017-03-09T07:10:13.546Z,7.35
2017-03-09T07:11:36.313Z,7.31
2017-03-09T07:12:58.662Z,7.42
2017-03-09T07:14:21.518Z,7.46
2017-03-09T07:15:44.414Z,7.42
2017-03-09T07:17:06.109Z,7.55
2017-03-09T07:18:28.870Z,7.63
2017-03-09T07:19:51.640Z,7.63
2017-03-09T07:21:14.655Z,7.6
2017-03-09T07:22:37.176Z,7.55
2017-03-09T07:24:00.065Z,7.55
2017-03-09T07:25:21.675Z,7.57
2017-03-09T07:26:44.226Z,7.5
2017-03-09T07:28:07.160Z,7.53
2017-03-09T07:29:29.317Z,7.5
2017-03-09T07:30:51.369Z,7.5
2017-03-09T07:32:14.159Z,7.55
2017-03-09T07:33:36.235Z,7.52
2017-03-09T07:34:58.373Z,7.57
2017-03-09T07:36:20.803Z,7.6
2017-03-09T07:37:43.283Z,7.71
2017-03-09T07:39:05.437Z,7.58
2017-03-09T07:40:27.698Z,7.74
2017-03-09T07:41:49.839Z,7.69
2017-03-09T07:43:12.737Z,7.69
2017-03-09T07:44:35.237Z,7.75
2017-03-09T07:45:57.735Z,7.64
2017-03-09T07:47:20.500Z,7.68
2017-03-09T07:48:42.872Z,7.83
2017-03-09T07:50:05.365Z,7.83
2017-03-09T07:51:28.237Z,7.9
2017-03-09T07:52:51.417Z,8
2017-03-09T07:54:14.330Z,8.18
2017-03-09T07:55:37.251Z,8.18
2017-03-09T07:56:59.796Z,8.12
2017-03-09T07:58:22.558Z,8.18
2017-03-09T07:59:44.250Z,8.18
2017-03-09T08:01:06.457Z,8.12
2017-03-09T08:02:29.107Z,8.18
2017-03-09T08:03:51.884Z,8.15
2017-03-09T08:05:14.040Z,8.18
2017-03-09T08:06:36.813Z,8.23
2017-03-09T08:07:59.375Z,8.25
2017-03-09T08:09:20.926Z,8.3
2017-03-09T08:10:43.089Z,8.33
2017-03-09T08:12:06.042Z,8.41
2017-03-09T08:13:28.654Z,8.56
2017-03-09T08:14:51.902Z,8.63
2017-03-09T08:16:14.115Z,8.8
2017-03-09T08:17:36.248Z,8.8
2017-03-09T08:18:58.363Z,8.83
2017-03-09T08:20:20.721Z,8.95
2017-03-09T08:21:43.312Z,8.96
2017-03-09T08:23:05.024Z,8.99
2017-03-09T08:24:27.514Z,9.14
2017-03-09T08:25:50.342Z,9.18
2017-03-09T08:27:12.902Z,9.32
2017-03-09T08:28:35.025Z,9.28
2017-03-09T08:29:57.555Z,9.15
2017-03-09T08:31:19.927Z,9.13
2017-03-09T08:32:42.483Z,9.13
2017-03-09T08:34:05.393Z,9.1
2017-03-09T08:35:27.513Z,9.04
2017-03-09T08:36:49.918Z,9.15
2017-03-09T08:39:31.872Z,9.42
2017-03-09T08:40:54.408Z,9.64
2017-03-09T08:42:17.294Z,9.84
2017-03-09T08:43:40.297Z,9.76
2017-03-09T08:45:03.340Z,9.54
2017-03-09T08:47:48.358Z,9.39
2017-03-09T08:49:10.569Z,9.43
2017-03-09T08:50:33.148Z,9.48
2017-03-09T08:51:54.586Z,9.61
2017-03-09T08:53:17.808Z,9.78
2017-03-09T08:54:40.293Z,9.91
2017-03-09T08:56:03.272Z,10.12
2017-03-09T08:57:26.178Z,10.02
2017-03-09T08:58:48.776Z,9.99
2017-03-09T09:00:10.874Z,9.94
2017-03-09T09:01:33.896Z,10.01
2017-03-09T09:02:56.103Z,10.02
2017-03-09T09:04:18.631Z,10.02
2017-03-09T09:05:41.152Z,10.02
2017-03-09T09:07:03.639Z,10.01
2017-03-09T09:08:26.689Z,10.12
2017-03-09T09:09:49.677Z,10.36
2017-03-09T09:11:12.195Z,10.38
2017-03-09T09:12:35.236Z,10.53
2017-03-09T09:13:57.817Z,10.67
2017-03-09T09:15:20.986Z,10.74
2017-03-09T09:16:43.505Z,10.66
2017-03-09T09:18:06.065Z,10.6
2017-03-09T09:19:28.580Z,10.76
2017-03-09T09:20:51.746Z,11.19
2017-03-09T09:22:13.881Z,11.46
2017-03-09T09:23:36.316Z,11.54
2017-03-09T09:24:59.238Z,11.52
2017-03-09T09:26:21.979Z,11.6
2017-03-09T09:27:45.000Z,11.78
2017-03-09T09:29:07.603Z,12.04
2017-03-09T09:30:29.855Z,12.29
2017-03-09T09:31:52.667Z,12.2
2017-03-09T09:33:14.774Z,11.99
2017-03-09T09:34:37.705Z,11.95
2017-03-09T09:36:00.225Z,11.88
2017-03-09T09:37:22.307Z,12.05
2017-03-09T09:38:45.316Z,12.16
2017-03-09T09:40:08.234Z,12.23
2017-03-09T09:41:30.799Z,12.39
2017-03-09T09:42:53.685Z,12.6
2017-03-09T09:44:16.802Z,12.83
2017-03-09T09:45:38.914Z,12.6
2017-03-09T09:47:01.500Z,12.52
2017-03-09T09:48:24.297Z,12.27
2017-03-09T09:49:46.459Z,12.31
2017-03-09T09:51:08.153Z,12.53
2017-03-09T09:52:30.981Z,12.54
2017-03-09T09:53:53.850Z,12.5
2017-03-09T09:55:16.745Z,12.53
2017-03-09T09:56:39.243Z,12.83
2017-03-09T09:58:01.806Z,12.85
2017-03-09T09:59:23.772Z,12.93
2017-03-09T10:00:46.011Z,13.1
2017-03-09T10:02:09.385Z,13.38
2017-03-09T10:03:31.503Z,13.39
2017-03-09T10:04:54.339Z,13.52
2017-03-09T10:06:16.512Z,13.67
2017-03-09T10:07:39.206Z,13.69
2017-03-09T10:09:01.390Z,13.55
2017-03-09T10:10:24.208Z,13.54
2017-03-09T10:11:46.496Z,13.45
2017-03-09T10:13:08.626Z,13.29
2017-03-09T10:14:31.286Z,13.19
2017-03-09T10:15:53.330Z,13.1
2017-03-09T10:17:16.083Z,13.19
2017-03-09T10:18:38.691Z,13.28
2017-03-09T10:20:01.199Z,13.28
2017-03-09T10:21:23.222Z,13.33
2017-03-09T10:22:45.924Z,13.36
2017-03-09T10:24:08.442Z,13.23
2017-03-09T10:25:31.360Z,13.22
2017-03-09T10:26:54.253Z,13.38
2017-03-09T10:28:17.236Z,13.22
2017-03-09T10:29:39.344Z,13.07
2017-03-09T10:31:01.870Z,13.08
2017-03-09T10:32:24.929Z,13.33
2017-03-09T10:33:47.299Z,13.45
2017-03-09T10:35:10.264Z,13.46
2017-03-09T10:36:32.764Z,13.44
2017-03-09T10:37:55.219Z,13.36
2017-03-09T10:39:17.562Z,13.22
2017-03-09T10:40:40.465Z,13.44
2017-03-09T10:42:02.993Z,13.42
2017-03-09T10:43:25.581Z,13.63
2017-03-09T10:44:47.684Z,13.81
2017-03-09T10:46:09.995Z,13.81
2017-03-09T10:47:32.125Z,13.79
2017-03-09T10:48:54.074Z,13.85
2017-03-09T10:50:16.603Z,13.85
2017-03-09T10:51:39.583Z,13.82
2017-03-09T10:53:01.337Z,13.78
2017-03-09T10:54:24.297Z,13.82
2017-03-09T10:55:46.412Z,14.06
2017-03-09T10:57:08.945Z,13.97
2017-03-09T10:58:32.043Z,13.79
2017-03-09T10:59:55.232Z,13.79
2017-03-09T11:01:18.286Z,13.92
2017-03-09T11:02:40.426Z,13.92
2017-03-09T11:04:03.066Z,14.12
2017-03-09T11:05:25.518Z,14.25
2017-03-09T11:06:48.143Z,14.39
2017-03-09T11:08:09.860Z,14.51
2017-03-09T11:09:32.869Z,14.61
2017-03-09T11:11:24.372Z,14.33
2017-03-09T11:12:46.861Z,14.25
2017-03-09T11:14:09.029Z,14.36
2017-03-09T11:15:31.572Z,14.39
2017-03-09T11:16:54.579Z,14.35
2017-03-09T11:18:17.489Z,14.32
2017-03-09T11:19:40.438Z,14.22
2017-03-09T11:21:03.468Z,14.04
2017-03-09T11:22:26.316Z,14.02
2017-03-09T11:23:48.862Z,13.99
2017-03-09T11:25:11.383Z,14.14
2017-03-09T11:26:33.924Z,14.14
2017-03-09T11:27:55.953Z,14.17
2017-03-09T11:29:18.876Z,13.99
2017-03-09T11:30:41.814Z,13.95
2017-03-09T11:32:04.336Z,13.64
2017-03-09T11:33:27.106Z,13.55
2017-03-09T11:34:49.590Z,13.51
2017-03-09T11:36:11.711Z,13.55
2017-03-09T11:37:34.235Z,13.33
2017-03-09T11:38:57.116Z,13.52
2017-03-09T11:40:19.732Z,13.46
2017-03-09T11:41:42.667Z,13.38
2017-03-09T11:43:05.611Z,13.33
2017-03-09T11:44:28.476Z,13.46
2017-03-09T11:45:50.851Z,13.54
2017-03-09T11:47:13.827Z,13.57
2017-03-09T11:48:36.747Z,13.46
2017-03-09T11:50:00.022Z,13.51
2017-03-09T11:51:22.158Z,13.51
2017-03-09T11:52:45.083Z,13.59
2017-03-09T11:54:06.806Z,13.73
2017-03-09T11:55:29.220Z,13.96
2017-03-09T11:56:51.527Z,14.15
2017-03-09T11:58:14.221Z,14.15
2017-03-09T11:59:35.540Z,14.22
2017-03-09T12:00:58.096Z,14.17
2017-03-09T12:02:20.205Z,14.17
2017-03-09T12:03:42.713Z,13.95
2017-03-09T12:05:05.225Z,14
2017-03-09T12:06:28.427Z,13.95
2017-03-09T12:07:51.368Z,14.17
2017-03-09T12:09:13.473Z,14.36
2017-03-09T12:10:35.182Z,14.68
2017-03-09T12:11:57.706Z,14.73
2017-03-09T12:13:20.059Z,14.78
2017-03-09T12:14:42.172Z,14.73
2017-03-09T12:16:04.388Z,14.92
2017-03-09T12:17:27.163Z,14.77
2017-03-09T12:18:48.497Z,14.54
2017-03-09T12:20:11.438Z,14.72
2017-03-09T12:21:34.333Z,14.7
2017-03-09T12:22:57.563Z,14.89
2017-03-09T12:24:20.594Z,14.72
2017-03-09T12:25:43.145Z,14.78
2017-03-09T12:27:05.348Z,14.78
2017-03-09T12:28:28.773Z,14.83
2017-03-09T12:29:51.313Z,14.86
2017-03-09T12:31:13.945Z,14.95
2017-03-09T12:32:36.887Z,14.95
2017-03-09T12:33:59.672Z,14.81
2017-03-09T12:35:22.386Z,14.68
2017-03-09T12:36:44.491Z,14.32
2017-03-09T12:38:06.275Z,14.1
2017-03-09T12:39:29.029Z,14.02
2017-03-09T12:40:51.236Z,14.09
2017-03-09T12:42:13.133Z,13.96
2017-03-09T12:43:35.692Z,13.96
2017-03-09T12:44:58.555Z,13.97
2017-03-09T12:46:21.094Z,13.67
2017-03-09T12:47:44.237Z,13.71
2017-03-09T12:49:06.458Z,13.59
2017-03-09T12:50:28.896Z,13.63
2017-03-09T12:51:51.817Z,13.48
2017-03-09T12:53:13.945Z,13.42
2017-03-09T12:54:36.946Z,13.22
2017-03-09T12:55:58.967Z,13.19
2017-03-09T12:57:21.462Z,13.15
2017-03-09T12:58:44.410Z,13.01
2017-03-09T13:00:07.169Z,12.86
2017-03-09T13:01:30.157Z,12.57
2017-03-09T13:02:52.673Z,12.5
2017-03-09T13:04:14.790Z,12.38
2017-03-09T13:05:37.557Z,12.31
2017-03-09T13:06:59.719Z,12.28
2017-03-09T13:08:22.686Z,12.28
2017-03-09T13:09:45.312Z,12.28
2017-03-09T13:11:07.438Z,12.35
2017-03-09T13:12:30.707Z,12.31
2017-03-09T13:13:54.191Z,12.39
2017-03-09T13:15:16.717Z,12.32
2017-03-09T13:16:39.622Z,12.27
2017-03-09T13:18:02.541Z,12.14
2017-03-09T13:19:25.126Z,12.1
2017-03-09T13:20:48.097Z,12.16
2017-03-09T13:22:11.027Z,12.31
2017-03-09T13:23:33.028Z,12.52
2017-03-09T13:24:55.170Z,12.65
2017-03-09T13:26:18.119Z,12.54
2017-03-09T13:27:40.276Z,12.42
2017-03-09T13:29:02.376Z,12.14
2017-03-09T13:30:24.934Z,12.01
2017-03-09T13:31:47.468Z,11.88
2017-03-09T13:33:09.662Z,11.96
2017-03-09T13:34:32.457Z,11.98
2017-03-09T13:35:55.003Z,11.96
2017-03-09T13:37:17.540Z,11.9
2017-03-09T13:38:39.694Z,11.73
2017-03-09T13:40:02.949Z,11.62
2017-03-09T13:41:25.506Z,11.67
2017-03-09T13:42:48.468Z,11.83
2017-03-09T13:44:11.437Z,11.91
2017-03-09T13:45:34.304Z,11.98
2017-03-09T13:46:57.210Z,11.8
2017-03-09T13:48:19.424Z,11.62
2017-03-09T13:49:41.602Z,11.57
2017-03-09T13:51:04.938Z,11.47
2017-03-09T13:52:27.843Z,11.36
2017-03-09T13:53:50.743Z,11.37
2017-03-09T13:55:13.278Z,11.4
2017-03-09T13:56:36.502Z,11.35
2017-03-09T13:57:59.025Z,11.32
2017-03-09T13:59:21.705Z,11.25
2017-03-09T14:00:44.259Z,11.22
2017-03-09T14:02:07.119Z,10.96
2017-03-09T14:03:29.643Z,10.91
2017-03-09T14:04:51.756Z,10.82
2017-03-09T14:06:14.282Z,10.74
2017-03-09T14:07:36.306Z,10.67
2017-03-09T14:08:59.220Z,10.64
2017-03-09T14:10:20.655Z,10.52
2017-03-09T14:11:43.596Z,10.44
2017-03-09T14:13:06.581Z,10.45
2017-03-09T14:14:29.296Z,10.48
2017-03-09T14:15:51.796Z,10.4
2017-03-09T14:17:13.960Z,10.42
2017-03-09T14:18:36.538Z,10.41
2017-03-09T14:19:59.833Z,10.34
2017-03-09T14:21:22.364Z,10.3
2017-03-09T14:22:45.347Z,10.4
2017-03-09T14:24:08.944Z,10.51
2017-03-09T14:25:31.056Z,10.51
2017-03-09T14:26:53.595Z,10.51
2017-03-09T14:28:16.146Z,10.48
2017-03-09T14:29:39.313Z,10.56
2017-03-09T14:31:01.458Z,10.45
2017-03-09T14:32:23.687Z,10.55
2017-03-09T14:33:46.634Z,10.51
2017-03-09T14:35:09.938Z,10.48
2017-03-09T14:36:32.071Z,10.44
2017-03-09T14:37:54.191Z,10.45
2017-03-09T14:39:16.723Z,10.38
2017-03-09T14:40:39.907Z,10.4
2017-03-09T14:42:02.463Z,10.4
2017-03-09T14:43:25.007Z,10.4
2017-03-09T14:44:47.629Z,10.44
2017-03-09T14:46:11.075Z,10.38
2017-03-09T14:47:34.065Z,10.42
2017-03-09T14:48:56.204Z,10.38
2017-03-09T14:50:19.187Z,10.3
2017-03-09T14:51:42.357Z,10.36
2017-03-09T14:53:05.488Z,10.38
2017-03-09T14:54:28.013Z,10.41
2017-03-09T14:55:50.166Z,10.29
2017-03-09T14:57:13.339Z,10.36
2017-03-09T14:58:35.445Z,10.33
2017-03-09T14:59:57.789Z,10.32
2017-03-09T15:01:20.705Z,10.27
2017-03-09T15:02:43.322Z,10.27
2017-03-09T15:04:06.331Z,10.26
2017-03-09T15:05:28.849Z,10.34
2017-03-09T15:06:50.616Z,10.41
2017-03-09T15:08:13.429Z,10.41
2017-03-09T15:09:35.549Z,10.34
2017-03-09T15:10:58.167Z,10.55
2017-03-09T15:12:21.088Z,10.51
2017-03-09T15:14:16.295Z,10.55
2017-03-09T15:15:39.236Z,10.61
2017-03-09T15:17:01.745Z,10.67
2017-03-09T15:18:24.691Z,10.6
2017-03-09T15:19:47.080Z,10.44
2017-03-09T15:21:09.219Z,10.4
2017-03-09T15:22:31.798Z,10.44
2017-03-09T15:23:54.804Z,10.38
2017-03-09T15:25:17.336Z,10.36
2017-03-09T15:26:39.518Z,10.36
2017-03-09T15:28:02.697Z,10.33
2017-03-09T15:29:25.683Z,10.33
2017-03-09T15:30:47.850Z,10.18
2017-03-09T15:32:10.627Z,10.12
2017-03-09T15:33:32.789Z,10.17
2017-03-09T15:34:55.643Z,10.15
2017-03-09T15:36:18.186Z,10.12
2017-03-09T15:37:40.717Z,9.96
2017-03-09T15:39:03.224Z,10.02
2017-03-09T15:40:26.440Z,9.89
2017-03-09T15:41:49.418Z,9.99
2017-03-09T15:43:11.285Z,10.07
2017-03-09T15:44:33.856Z,10.01
2017-03-09T15:45:56.565Z,9.94
2017-03-09T15:47:19.546Z,9.86
2017-03-09T15:48:42.117Z,9.83
2017-03-09T15:50:04.261Z,9.71
2017-03-09T15:51:26.387Z,9.65
2017-03-09T15:52:48.922Z,9.6
2017-03-09T15:54:11.472Z,9.61
2017-03-09T15:55:34.413Z,9.58
2017-03-09T15:56:57.348Z,9.57
2017-03-09T15:58:19.926Z,9.58
2017-03-09T15:59:42.459Z,9.57
2017-03-09T16:01:04.977Z,9.53
2017-03-09T16:02:27.032Z,9.5
2017-03-09T16:03:49.163Z,9.6
2017-03-09T16:05:12.200Z,9.56
2017-03-09T16:06:35.145Z,9.6
2017-03-09T16:07:57.575Z,9.64
2017-03-09T16:09:20.127Z,9.72
2017-03-09T16:10:42.296Z,9.72
2017-03-09T16:12:04.817Z,9.68
2017-03-09T16:13:27.779Z,9.58
2017-03-09T16:14:50.483Z,9.57
2017-03-09T16:16:12.727Z,9.42
2017-03-09T16:17:35.641Z,9.43
2017-03-09T16:18:58.519Z,9.29
2017-03-09T16:20:21.060Z,9.29
2017-03-09T16:21:44.066Z,9.31
2017-03-09T16:23:05.791Z,9.23
2017-03-09T16:24:28.278Z,9.2
2017-03-09T16:25:50.646Z,9.11
2017-03-09T16:27:13.205Z,9.1
2017-03-09T16:28:36.189Z,9.15
2017-03-09T16:29:59.459Z,9.11
2017-03-09T16:31:22.394Z,9.08
2017-03-09T16:32:45.380Z,9.04
2017-03-09T16:34:08.366Z,8.96
2017-03-09T16:35:31.232Z,9.08
2017-03-09T16:36:54.171Z,9.04
2017-03-09T16:38:16.347Z,9.1
2017-03-09T16:39:39.502Z,9.02
2017-03-09T16:41:02.629Z,8.95
2017-03-09T16:42:24.783Z,8.91
2017-03-09T16:43:47.781Z,8.89
2017-03-09T16:45:10.756Z,8.95
2017-03-09T16:46:33.571Z,8.96
2017-03-09T16:47:55.948Z,8.96
2017-03-09T16:49:18.603Z,8.83
2017-03-09T16:50:41.604Z,8.94
2017-03-09T16:52:04.172Z,8.84
2017-03-09T16:53:27.121Z,8.8
2017-03-09T16:54:49.290Z,8.81
2017-03-09T16:56:12.277Z,8.73
2017-03-09T16:57:36.288Z,8.74
2017-03-09T16:58:59.035Z,8.66
2017-03-09T17:00:22.181Z,8.56
2017-03-09T17:01:44.709Z,8.53
2017-03-09T17:03:06.423Z,8.58
2017-03-09T17:04:29.070Z,8.52
2017-03-09T17:05:51.650Z,8.55
2017-03-09T17:07:14.642Z,8.47
2017-03-09T17:08:38.018Z,8.43
2017-03-09T17:10:00.563Z,8.34
2017-03-09T17:11:23.091Z,8.33
2017-03-09T17:12:45.713Z,8.26
2017-03-09T17:14:08.528Z,8.16
2017-03-09T17:15:30.301Z,8.25
2017-03-09T17:16:52.454Z,8.34
2017-03-09T17:18:14.671Z,8.44
2017-03-09T17:19:37.563Z,8.44
2017-03-09T17:21:00.198Z,8.52
2017-03-09T17:22:22.749Z,8.52
2017-03-09T17:23:44.882Z,8.52
2017-03-09T17:25:07.677Z,8.48
2017-03-09T17:26:30.204Z,8.52
2017-03-09T17:27:52.375Z,8.47
2017-03-09T17:29:15.294Z,8.5
2017-03-09T17:30:38.635Z,8.59
2017-03-09T17:32:01.416Z,8.68
2017-03-09T17:33:24.084Z,8.55
2017-03-09T17:34:46.836Z,8.55
2017-03-09T17:36:09.297Z,8.48
2017-03-09T17:37:32.279Z,8.44
2017-03-09T17:38:55.213Z,8.38
2017-03-09T17:40:17.916Z,8.43
2017-03-09T17:41:41.156Z,8.43
2017-03-09T17:43:03.274Z,8.41
2017-03-09T17:44:25.809Z,8.47
2017-03-09T17:45:48.033Z,8.44
2017-03-09T17:47:10.847Z,8.45
2017-03-09T17:48:32.975Z,8.47
2017-03-09T17:49:55.538Z,8.43
2017-03-09T17:51:18.498Z,8.44
2017-03-09T17:52:41.466Z,8.41
2017-03-09T17:54:03.807Z,8.45
2017-03-09T17:55:25.506Z,8.41
2017-03-09T17:56:47.238Z,8.48
2017-03-09T17:58:10.080Z,8.44
2017-03-09T17:59:32.627Z,8.43
2017-03-09T18:00:55.146Z,8.43
2017-03-09T18:02:18.115Z,8.48
2017-03-09T18:03:41.413Z,8.45
2017-03-09T18:05:03.612Z,8.4
2017-03-09T18:06:25.748Z,8.41
2017-03-09T18:07:48.883Z,8.34
2017-03-09T18:09:11.669Z,8.34
2017-03-09T18:10:34.702Z,8.29
2017-03-09T18:11:57.267Z,8.19
2017-03-09T18:13:19.405Z,8.28